Observation data for Wolfforth on 12/07/2018      Previous  Date       Current Mesonet Observations  Soil Data  Daily Summary Page  Observations in Plain Language
KWOS 070600Z 04005KT 00/M03 A3029 RMK A01 T00041032  RH  077%=      5-min Rain = 0
KWOS 070605Z 08003KT 00/M03 A303 RMK A01 T00041032  RH  077%=      5-min Rain = 0
KWOS 070610Z 05003KT 00/M03 A303 RMK A01 T00031033  RH  077%=      5-min Rain = 0
KWOS 070615Z 07004KT 00/M03 A303 RMK A01 T00041033  RH  077%=      5-min Rain = 0
KWOS 070620Z 06004KT 00/M03 A303 RMK A01 T00031034  RH  077%=      5-min Rain = 0
KWOS 070625Z 06004KT 00/M03 A3029 RMK A01 T00031034  RH  077%=      5-min Rain = 0
KWOS 070630Z 06005KT 00/M03 A303 RMK A01 T00021034  RH  077%=      5-min Rain = 0
KWOS 070635Z 06003KT 00/M03 A303 RMK A01 T00021034  RH  077%=      5-min Rain = 0
KWOS 070640Z 08002KT 00/M03 A3031 RMK A01 T00021034  RH  077%=      5-min Rain = 0
KWOS 070645Z 06002KT 00/M03 A3032 RMK A01 T00011034  RH  078%=      5-min Rain = 0
KWOS 070650Z 05002KT 00/M03 A3032 RMK A01 T00031034  RH  077%=      5-min Rain = 0
KWOS 070655Z 05002KT 00/M03 A3032 RMK A01 T00041034  RH  076%=      5-min Rain = 0
KWOS 070700Z 04002KT 00/M03 A3032 RMK A01 T00041034  RH  076%=      5-min Rain = 0
KWOS 070705Z 03003KT 00/M03 A3031 RMK A01 T00041033  RH  076%=      5-min Rain = 0
KWOS 070710Z 04002KT 00/M03 A3031 RMK A01 T00041034  RH  076%=      5-min Rain = 0
KWOS 070715Z 04002KT 00/M03 A3031 RMK A01 T00041033  RH  076%=      5-min Rain = 0
KWOS 070720Z 04003KT 01/M03 A3031 RMK A01 T00051034  RH  076%=      5-min Rain = 0
KWOS 070725Z 04004KT 01/M03 A303 RMK A01 T00051034  RH  076%=      5-min Rain = 0
KWOS 070730Z 04005KT 01/M03 A303 RMK A01 T00051034  RH  075%=      5-min Rain = 0
KWOS 070735Z 04005KT 00/M04 A303 RMK A01 T00041035  RH  075%=      5-min Rain = 0
KWOS 070740Z 03005KT 01/M03 A3029 RMK A01 T00051034  RH  076%=      5-min Rain = 0
KWOS 070745Z 03004KT 01/M03 A303 RMK A01 T00051034  RH  076%=      5-min Rain = 0
KWOS 070750Z 04006KT 01/M04 A3029 RMK A01 T00051035  RH  075%=      5-min Rain = 0
KWOS 070755Z 04006KT 00/M04 A3029 RMK A01 T00041036  RH  075%=      5-min Rain = 0
KWOS 070800Z 01005KT 00/M04 A3031 RMK A01 T00041037  RH  075%=      5-min Rain = 0
KWOS 070805Z 35004KT 00/M04 A3032 RMK A01 T00041037  RH  074%=      5-min Rain = 0
KWOS 070810Z 34004KT 01/M04 A3032 RMK A01 T00051037  RH  074%=      5-min Rain = 0
KWOS 070815Z 36004KT 00/M04 A3032 RMK A01 T00041038  RH  074%=      5-min Rain = 0
KWOS 070820Z 34004KT 01/M04 A3032 RMK A01 T00051037  RH  074%=      5-min Rain = 0
KWOS 070825Z 34004KT 01/M04 A3032 RMK A01 T00051038  RH  074%=      5-min Rain = 0
KWOS 070830Z 35004KT 01/M04 A3032 RMK A01 T00051037  RH  074%=      5-min Rain = 0
KWOS 070835Z 35005KT 01/M04 A3031 RMK A01 T00051038  RH  073%=      5-min Rain = 0
KWOS 070840Z 36005KT 01/M04 A3031 RMK A01 T00051038  RH  073%=      5-min Rain = 0
KWOS 070845Z 35006KT 01/M04 A3031 RMK A01 T00061038  RH  073%=      5-min Rain = 0
KWOS 070850Z 35005KT 01/M04 A3031 RMK A01 T00061037  RH  073%=      5-min Rain = 0
KWOS 070855Z 01006KT 01/M03 A303 RMK A01 T00051031  RH  077%=      5-min Rain = 0
KWOS 070900Z 33003KT 00/M03 A3031 RMK A01 T00031029  RH  080%=      5-min Rain = 0
KWOS 070905Z 30002KT 00/M03 A3032 RMK A01 T00031029  RH  080%=      5-min Rain = 0
KWOS 070910Z 34003KT 00/M03 A3031 RMK A01 T00031030  RH  079%=      5-min Rain = 0
KWOS 070915Z 35003KT 00/M03 A303 RMK A01 T00031029  RH  080%=      5-min Rain = 0
KWOS 070920Z 01004KT 00/M03 A3029 RMK A01 T00031027  RH  081%=      5-min Rain = 0
KWOS 070925Z 02006KT 00/M03 A3029 RMK A01 T00031026  RH  082%=      5-min Rain = 0
KWOS 070930Z 04002KT 00/M03 A303 RMK A01 T00021026  RH  082%=      5-min Rain = 0
KWOS 070935Z 04007KT 00/M03 A3028 RMK A01 T00011026  RH  083%=      5-min Rain = 0.01
KWOS 070940Z 05011KT M00/M02 A3025 RMK A01 T10011022  RH  086%=      5-min Rain = 0.01
KWOS 070945Z 04013KT M00/M02 A3023 RMK A01 T10021021  RH  088%=      5-min Rain = 0.01
KWOS 070950Z 05013KT M00/M02 A3021 RMK A01 T10031020  RH  089%=      5-min Rain = 0
KWOS 070955Z 06015KT M00/M02 A3019 RMK A01 T10041021  RH  089%=      5-min Rain = 0
KWOS 071000Z 05011G16KT M00/M02 A3021 RMK A01 T10041021  RH  089%=      5-min Rain = 0
KWOS 071005Z 35008KT M00/M02 A3024 RMK A01 T10041022  RH  089%=      5-min Rain = 0
KWOS 071010Z 30004KT M00/M02 A3027 RMK A01 T10031022  RH  088%=      5-min Rain = 0
KWOS 071015Z 32003KT M00/M02 A3026 RMK A01 T10031022  RH  088%=      5-min Rain = 0
KWOS 071020Z 32002KT M00/M02 A3026 RMK A01 T10031021  RH  088%=      5-min Rain = 0
KWOS 071025Z 02002KT M00/M02 A3026 RMK A01 T10031021  RH  088%=      5-min Rain = 0
KWOS 071030Z 05003KT M00/M02 A3025 RMK A01 T10031022  RH  088%=      5-min Rain = 0
KWOS 071035Z 08002KT M00/M02 A3026 RMK A01 T10031021  RH  089%=      5-min Rain = 0
KWOS 071040Z 05002KT M00/M02 A3026 RMK A01 T10031020  RH  089%=      5-min Rain = 0
KWOS 071045Z 08002KT M00/M02 A3026 RMK A01 T10031021  RH  088%=      5-min Rain = 0
KWOS 071050Z 09002KT M00/M02 A3026 RMK A01 T10031020  RH  089%=      5-min Rain = 0
KWOS 071055Z 08002KT M00/M02 A3026 RMK A01 T10031019  RH  090%=      5-min Rain = 0
KWOS 071100Z 07001KT M00/M02 A3027 RMK A01 T10041020  RH  089%=      5-min Rain = 0
KWOS 071105Z 09001KT M00/M02 A3027 RMK A01 T10031021  RH  088%=      5-min Rain = 0
KWOS 071110Z 09000KT M00/M02 A3027 RMK A01 T10031019  RH  090%=      5-min Rain = 0
KWOS 071115Z 00000KT M00/M02 A3028 RMK A01 T10021017  RH  090%=      5-min Rain = 0
KWOS 071120Z 00000KT M00/M02 A3028 RMK A01 T10021020  RH  088%=      5-min Rain = 0
KWOS 071125Z 00000KT M00/M02 A3029 RMK A01 T10011021  RH  087%=      5-min Rain = 0
KWOS 071130Z 00000KT 00/02 A3029 RMK A01 T00-00-22  RH  086%=      5-min Rain = 0
KWOS 071135Z 31001KT 00/02 A3029 RMK A01 T00-00-22  RH  086%=      5-min Rain = 0
KWOS 071140Z 35001KT 00/02 A3028 RMK A01 T00-00-22  RH  086%=      5-min Rain = 0
KWOS 071145Z 01002KT M00/M02 A3028 RMK A01 T10011022  RH  086%=      5-min Rain = 0
KWOS 071150Z 03003KT 00/02 A3028 RMK A01 T00-00-21  RH  087%=      5-min Rain = 0
KWOS 071155Z 04004KT 00/02 A3027 RMK A01 T00-00-20  RH  087%=      5-min Rain = 0
KWOS 071200Z 04006KT 00/02 A3026 RMK A01 T00-00-19  RH  088%=      5-min Rain = 0
KWOS 071205Z 03008KT 00/02 A3025 RMK A01 T00-00-18  RH  089%=      5-min Rain = 0
KWOS 071210Z 03010KT M00/M02 A3024 RMK A01 T10011019  RH  089%=      5-min Rain = 0
KWOS 071215Z 03009KT M00/M02 A3023 RMK A01 T10011018  RH  089%=      5-min Rain = 0
KWOS 071220Z 02008KT M00/M02 A3025 RMK A01 T10011020  RH  088%=      5-min Rain = 0
KWOS 071225Z 01006KT M00/M02 A3025 RMK A01 T10011018  RH  089%=      5-min Rain = 0
KWOS 071230Z 00004KT M00/M02 A3027 RMK A01 T10011019  RH  088%=      5-min Rain = 0
KWOS 071235Z 02002KT M00/M02 A3028 RMK A01 T10011020  RH  088%=      5-min Rain = 0
KWOS 071240Z 05003KT M00/M02 A3028 RMK A01 T10011021  RH  087%=      5-min Rain = 0
KWOS 071245Z 12003KT M00/M02 A3029 RMK A01 T10011019  RH  088%=      5-min Rain = 0
KWOS 071250Z 12003KT M00/M02 A3029 RMK A01 T10021018  RH  090%=      5-min Rain = 0
KWOS 071255Z 14002KT M00/M02 A303 RMK A01 T10021017  RH  090%=      5-min Rain = 0
KWOS 071300Z 17003KT M00/M02 A303 RMK A01 T10011016  RH  090%=      5-min Rain = 0
KWOS 071305Z 15003KT 00/02 A3031 RMK A01 T00-00-17  RH  089%=      5-min Rain = 0
KWOS 071310Z 15003KT 00/02 A3031 RMK A01 T00000-16  RH  089%=      5-min Rain = 0
KWOS 071315Z 13003KT 00/02 A303 RMK A01 T00000-16  RH  089%=      5-min Rain = 0
KWOS 071320Z 10004KT 00/02 A3029 RMK A01 T00-00-17  RH  090%=      5-min Rain = 0
KWOS 071325Z 12004KT 00/02 A3029 RMK A01 T00-00-16  RH  090%=      5-min Rain = 0
KWOS 071330Z 11003KT 00/02 A303 RMK A01 T00-00-15  RH  091%=      5-min Rain = 0
KWOS 071335Z 10003KT 00/02 A303 RMK A01 T00-00-15  RH  091%=      5-min Rain = 0
KWOS 071340Z 09003KT M00/M02 A303 RMK A01 T10011015  RH  091%=      5-min Rain = 0
KWOS 071345Z 07004KT M00/M02 A3029 RMK A01 T10011015  RH  091%=      5-min Rain = 0
KWOS 071350Z 06004KT 00/02 A3029 RMK A01 T00-00-16  RH  090%=      5-min Rain = 0
KWOS 071355Z 05004KT 00/02 A3029 RMK A01 T00-00-17  RH  089%=      5-min Rain = 0
KWOS 071400Z 03003KT 00/02 A3029 RMK A01 T00000-18  RH  089%=      5-min Rain = 0
KWOS 071405Z 02004KT 00/M02 A3029 RMK A01 T00011017  RH  089%=      5-min Rain = 0
KWOS 071410Z 00005KT 00/M02 A3029 RMK A01 T00011016  RH  089%=      5-min Rain = 0
KWOS 071415Z 35005KT 00/M02 A3029 RMK A01 T00011015  RH  090%=      5-min Rain = 0
KWOS 071420Z 34005KT 00/M01 A3029 RMK A01 T00011014  RH  091%=      5-min Rain = 0
KWOS 071425Z 35005KT 00/M01 A303 RMK A01 T00011013  RH  091%=      5-min Rain = 0
KWOS 071430Z 00004KT 00/M01 A303 RMK A01 T00011014  RH  091%=      5-min Rain = 0
KWOS 071435Z 35004KT 00/M02 A303 RMK A01 T00011015  RH  090%=      5-min Rain = 0
KWOS 071440Z 01003KT 00/M01 A303 RMK A01 T00011013  RH  091%=      5-min Rain = 0
KWOS 071445Z 36003KT 00/M01 A3031 RMK A01 T00011012  RH  092%=      5-min Rain = 0
KWOS 071450Z 34003KT 00/M01 A3031 RMK A01 T00011011  RH  093%=      5-min Rain = 0
KWOS 071455Z 35003KT 00/M01 A3031 RMK A01 T00011011  RH  092%=      5-min Rain = 0
KWOS 071500Z 34004KT 00/M01 A3032 RMK A01 T00021011  RH  092%=      5-min Rain = 0
KWOS 071505Z 35004KT 00/M01 A3032 RMK A01 T00021011  RH  091%=      5-min Rain = 0
KWOS 071510Z 00004KT 00/M01 A3032 RMK A01 T00031011  RH  091%=      5-min Rain = 0
KWOS 071515Z 01004KT 00/M01 A3032 RMK A01 T00041012  RH  090%=      5-min Rain = 0
KWOS 071520Z 36004KT 01/M01 A3033 RMK A01 T00051012  RH  089%=      5-min Rain = 0
KWOS 071525Z 00005KT 01/M01 A3033 RMK A01 T00051011  RH  090%=      5-min Rain = 0
KWOS 071530Z 36005KT 01/M01 A3032 RMK A01 T00061011  RH  090%=      5-min Rain = 0
KWOS 071535Z 35005KT 01/M01 A3033 RMK A01 T00061010  RH  090%=      5-min Rain = 0.05
KWOS 071540Z 34005KT 01/M01 A3033 RMK A01 T00061009  RH  090%=      5-min Rain = 0
KWOS 071545Z 36006KT 01/M01 A3033 RMK A01 T00071010  RH  090%=      5-min Rain = 0
KWOS 071550Z 01005KT 01/M01 A3032 RMK A01 T00071010  RH  090%=      5-min Rain = 0
KWOS 071555Z 03006KT 01/M01 A3032 RMK A01 T00081007  RH  091%=      5-min Rain = 0
KWOS 071600Z 03006KT 01/M01 A3032 RMK A01 T00081009  RH  090%=      5-min Rain = 0
KWOS 071605Z 03006KT 01/M01 A3031 RMK A01 T00081008  RH  090%=      5-min Rain = 0
KWOS 071610Z 03007KT 01/M01 A303 RMK A01 T00091007  RH  090%=      5-min Rain = 0
KWOS 071615Z 04006KT 01/M01 A3031 RMK A01 T00101005  RH  091%=      5-min Rain = 0
KWOS 071620Z 04006KT 01/M01 A3031 RMK A01 T00101006  RH  090%=      5-min Rain = 0
KWOS 071625Z 05006KT 01/M01 A3031 RMK A01 T00101007  RH  089%=      5-min Rain = 0
KWOS 071630Z 04006KT 01/M01 A3031 RMK A01 T00111006  RH  089%=      5-min Rain = 0
KWOS 071635Z 06007KT 01/M01 A3031 RMK A01 T00111006  RH  090%=      5-min Rain = 0
KWOS 071640Z 06007KT 01/M01 A3031 RMK A01 T00111005  RH  090%=      5-min Rain = 0
KWOS 071645Z 07007KT 01/M01 A3031 RMK A01 T00111005  RH  090%=      5-min Rain = 0
KWOS 071650Z 07007KT 01/M00 A3031 RMK A01 T00111004  RH  091%=      5-min Rain = 0
KWOS 071655Z 07008KT 01/M00 A303 RMK A01 T00111003  RH  091%=      5-min Rain = 0
KWOS 071700Z 07006KT 01/M00 A3031 RMK A01 T00111003  RH  091%=      5-min Rain = 0
KWOS 071705Z 08006KT 01/M00 A3031 RMK A01 T00121003  RH  091%=      5-min Rain = 0
KWOS 071710Z 08006KT 01/M00 A3031 RMK A01 T00121002  RH  092%=      5-min Rain = 0
KWOS 071715Z 10007KT 01/M00 A303 RMK A01 T00111002  RH  092%=      5-min Rain = 0
KWOS 071720Z 09007KT 01/M00 A303 RMK A01 T00111001  RH  093%=      5-min Rain = 0
KWOS 071725Z 09007KT 01/M00 A303 RMK A01 T00121002  RH  092%=      5-min Rain = 0
KWOS 071730Z 08007KT 01/M00 A303 RMK A01 T00111002  RH  092%=      5-min Rain = 0
KWOS 071735Z 08007KT 01/M00 A3029 RMK A01 T00111002  RH  092%=      5-min Rain = 0
KWOS 071740Z 08007KT 01/M00 A3029 RMK A01 T00121003  RH  091%=      5-min Rain = 0
KWOS 071745Z 07006KT 01/M01 A3029 RMK A01 T00111005  RH  090%=      5-min Rain = 0
KWOS 071750Z 08006KT 01/M00 A3029 RMK A01 T00121003  RH  091%=      5-min Rain = 0
KWOS 071755Z 07006KT 01/M00 A3028 RMK A01 T00121003  RH  091%=      5-min Rain = 0
KWOS 071800Z 07007KT 01/M00 A3028 RMK A01 T00121004  RH  090%=      5-min Rain = 0
KWOS 071805Z 06006KT 01/M00 A3028 RMK A01 T00121004  RH  090%=      5-min Rain = 0
KWOS 071810Z 05006KT 01/M00 A3028 RMK A01 T00131003  RH  090%=      5-min Rain = 0
KWOS 071815Z 05006KT 01/M01 A3029 RMK A01 T00121005  RH  090%=      5-min Rain = 0
KWOS 071820Z 05006KT 01/M00 A3028 RMK A01 T00131003  RH  090%=      5-min Rain = 0
KWOS 071825Z 06006KT 01/M00 A3028 RMK A01 T00131002  RH  091%=      5-min Rain = 0
KWOS 071830Z 06007KT 01/M00 A3028 RMK A01 T00131003  RH  090%=      5-min Rain = 0
KWOS 071835Z 07007KT 01/M00 A3027 RMK A01 T00141001  RH  091%=      5-min Rain = 0
KWOS 071840Z 07008KT 01/M00 A3026 RMK A01 T00141002  RH  090%=      5-min Rain = 0
KWOS 071845Z 07007KT 01/M00 A3026 RMK A01 T00141002  RH  090%=      5-min Rain = 0
KWOS 071850Z 07007KT 01/M00 A3026 RMK A01 T00141002  RH  090%=      5-min Rain = 0
KWOS 071855Z 06007KT 01/M00 A3026 RMK A01 T00141002  RH  090%=      5-min Rain = 0
KWOS 071900Z 06007KT 01/M00 A3026 RMK A01 T00131002  RH  091%=      5-min Rain = 0
KWOS 071905Z 07007KT 01/M00 A3026 RMK A01 T00131002  RH  091%=      5-min Rain = 0
KWOS 071910Z 06007KT 01/M00 A3025 RMK A01 T00141002  RH  090%=      5-min Rain = 0
KWOS 071915Z 05006KT 01/M00 A3025 RMK A01 T00131003  RH  090%=      5-min Rain = 0
KWOS 071920Z 05006KT 01/M00 A3025 RMK A01 T00141002  RH  090%=      5-min Rain = 0
KWOS 071925Z 03006KT 01/M00 A3026 RMK A01 T00141002  RH  090%=      5-min Rain = 0
KWOS 071930Z 03006KT 01/M00 A3025 RMK A01 T00141001  RH  091%=      5-min Rain = 0
KWOS 071935Z 04006KT 02/00 A3025 RMK A01 T00150000  RH  091%=      5-min Rain = 0
KWOS 071940Z 05006KT 02/00 A3024 RMK A01 T00150000  RH  091%=      5-min Rain = 0
KWOS 071945Z 05006KT 02/00 A3025 RMK A01 T00150001  RH  091%=      5-min Rain = 0
KWOS 071950Z 04006KT 01/M00 A3025 RMK A01 T00141001  RH  091%=      5-min Rain = 0
KWOS 071955Z 04006KT 02/M00 A3025 RMK A01 T00151001  RH  090%=      5-min Rain = 0
KWOS 072000Z 04006KT 02/M00 A3024 RMK A01 T00151001  RH  090%=      5-min Rain = 0.01
KWOS 072005Z 05006KT 02/00 A3024 RMK A01 T001600-0  RH  090%=      5-min Rain = 0
KWOS 072010Z 06006KT 02/M00 A3024 RMK A01 T00151002  RH  090%=      5-min Rain = 0
KWOS 072015Z 04005KT 02/M00 A3024 RMK A01 T00151001  RH  090%=      5-min Rain = 0
KWOS 072020Z 03005KT 02/00 A3024 RMK A01 T00160000  RH  090%=      5-min Rain = 0
KWOS 072025Z 04005KT 02/00 A3024 RMK A01 T00170001  RH  090%=      5-min Rain = 0
KWOS 072030Z 04006KT 02/M00 A3024 RMK A01 T00151002  RH  090%=      5-min Rain = 0
KWOS 072035Z 04006KT 02/M00 A3024 RMK A01 T00151001  RH  090%=      5-min Rain = 0
KWOS 072040Z 04006KT 02/M00 A3023 RMK A01 T00151001  RH  090%=      5-min Rain = 0
KWOS 072045Z 05007KT 02/00 A3022 RMK A01 T00150000  RH  091%=      5-min Rain = 0
KWOS 072050Z 05007KT 02/00 A3022 RMK A01 T001500-0  RH  091%=      5-min Rain = 0
KWOS 072055Z 04007KT 02/M00 A3022 RMK A01 T00151002  RH  090%=      5-min Rain = 0
KWOS 072100Z 05006KT 02/M00 A3022 RMK A01 T00151001  RH  090%=      5-min Rain = 0
KWOS 072105Z 04006KT 02/M00 A3022 RMK A01 T00151001  RH  090%=      5-min Rain = 0
KWOS 072110Z 05006KT 02/00 A3022 RMK A01 T001500-0  RH  091%=      5-min Rain = 0
KWOS 072115Z 04007KT 01/M00 A3022 RMK A01 T00141001  RH  090%=      5-min Rain = 0
KWOS 072120Z 04007KT 01/M00 A3023 RMK A01 T00141002  RH  090%=      5-min Rain = 0
KWOS 072125Z 05007KT 01/M00 A3022 RMK A01 T00141001  RH  090%=      5-min Rain = 0
KWOS 072130Z 05007KT 02/M00 A3021 RMK A01 T00151001  RH  090%=      5-min Rain = 0
KWOS 072135Z 06008KT 02/M00 A3021 RMK A01 T00151001  RH  091%=      5-min Rain = 0
KWOS 072140Z 05008KT 01/M00 A3021 RMK A01 T00141001  RH  091%=      5-min Rain = 0
KWOS 072145Z 05008KT 01/M00 A3022 RMK A01 T00141001  RH  091%=      5-min Rain = 0
KWOS 072150Z 04007KT 01/M00 A3022 RMK A01 T00141001  RH  091%=      5-min Rain = 0
KWOS 072155Z 04008KT 01/M00 A3022 RMK A01 T00141001  RH  091%=      5-min Rain = 0
KWOS 072200Z 04008KT 01/M00 A3021 RMK A01 T00141001  RH  091%=      5-min Rain = 0
KWOS 072205Z 04009KT 01/00 A3021 RMK A01 T00140000  RH  091%=      5-min Rain = 0
KWOS 072210Z 04010KT 01/M00 A3022 RMK A01 T00141001  RH  091%=      5-min Rain = 0
KWOS 072215Z 04009KT 01/M00 A3022 RMK A01 T00131001  RH  091%=      5-min Rain = 0
KWOS 072220Z 03009KT 01/00 A3023 RMK A01 T001300-0  RH  092%=      5-min Rain = 0
KWOS 072225Z 03009KT 01/M00 A3023 RMK A01 T00121001  RH  092%=      5-min Rain = 0
KWOS 072230Z 04009KT 01/M00 A3023 RMK A01 T00111001  RH  093%=      5-min Rain = 0
KWOS 072235Z 04009KT 01/M00 A3023 RMK A01 T00111001  RH  093%=      5-min Rain = 0
KWOS 072240Z 04009KT 01/M00 A3023 RMK A01 T00111001  RH  093%=      5-min Rain = 0
KWOS 072245Z 04009KT 01/M00 A3024 RMK A01 T00101001  RH  093%=      5-min Rain = 0
KWOS 072250Z 04009KT 01/M00 A3024 RMK A01 T00081003  RH  093%=      5-min Rain = 0
KWOS 072255Z 04008KT 01/M00 A3024 RMK A01 T00081002  RH  094%=      5-min Rain = 0
KWOS 072300Z 04010KT 01/M00 A3024 RMK A01 T00071004  RH  094%=      5-min Rain = 0
KWOS 072305Z 04008KT 01/M00 A3024 RMK A01 T00071004  RH  094%=      5-min Rain = 0
KWOS 072310Z 04008KT 01/M00 A3024 RMK A01 T00071004  RH  094%=      5-min Rain = 0
KWOS 072315Z 05009KT 01/M01 A3024 RMK A01 T00061005  RH  093%=      5-min Rain = 0
KWOS 072320Z 05010KT 01/M01 A3024 RMK A01 T00051006  RH  093%=      5-min Rain = 0
KWOS 072325Z 05009KT 01/M01 A3023 RMK A01 T00051007  RH  093%=      5-min Rain = 0
KWOS 072330Z 05010KT 00/M01 A3022 RMK A01 T00041007  RH  093%=      5-min Rain = 0
KWOS 072335Z 05010KT 00/M01 A3022 RMK A01 T00041007  RH  093%=      5-min Rain = 0
KWOS 072340Z 05010KT 00/M01 A3022 RMK A01 T00041007  RH  093%=      5-min Rain = 0
KWOS 072345Z 05010KT 00/M01 A3023 RMK A01 T00031009  RH  093%=      5-min Rain = 0
KWOS 072350Z 04009KT 00/M01 A3023 RMK A01 T00031008  RH  093%=      5-min Rain = 0
KWOS 072355Z 04010KT 00/M01 A3023 RMK A01 T00021008  RH  094%=      5-min Rain = 0
KWOS 080000Z 05008KT 00/M01 A3023 RMK A01 T00021008  RH  094%=      5-min Rain = 0
KWOS 080005Z 05008KT 00/M01 A3023 RMK A01 T00021007  RH  095%=      5-min Rain = 0
KWOS 080010Z 05009KT 00/M01 A3022 RMK A01 T00021007  RH  095%=      5-min Rain = 0
KWOS 080015Z 04009KT 00/M01 A3022 RMK A01 T00021007  RH  095%=      5-min Rain = 0
KWOS 080020Z 04010KT 00/M01 A3023 RMK A01 T00011008  RH  094%=      5-min Rain = 0
KWOS 080025Z 04010KT 00/M01 A3023 RMK A01 T00011008  RH  094%=      5-min Rain = 0
KWOS 080030Z 04009KT 00/M01 A3023 RMK A01 T00021008  RH  094%=      5-min Rain = 0
KWOS 080035Z 04008KT 00/M01 A3023 RMK A01 T00021007  RH  094%=      5-min Rain = 0
KWOS 080040Z 04008KT 00/M01 A3024 RMK A01 T00021007  RH  094%=      5-min Rain = 0
KWOS 080045Z 04007KT 00/M01 A3025 RMK A01 T00031007  RH  095%=      5-min Rain = 0
KWOS 080050Z 04008KT 00/M01 A3025 RMK A01 T00031006  RH  095%=      5-min Rain = 0
KWOS 080055Z 04006KT 00/M01 A3025 RMK A01 T00031006  RH  095%=      5-min Rain = 0
KWOS 080100Z 04006KT 00/M01 A3026 RMK A01 T00031005  RH  095%=      5-min Rain = 0
KWOS 080105Z 04007KT 00/M01 A3026 RMK A01 T00031005  RH  095%=      5-min Rain = 0
KWOS 080110Z 05008KT 00/M01 A3026 RMK A01 T00031005  RH  095%=      5-min Rain = 0
KWOS 080115Z 04008KT 00/M01 A3026 RMK A01 T00041005  RH  095%=      5-min Rain = 0
KWOS 080120Z 04008KT 00/M00 A3026 RMK A01 T00041004  RH  095%=      5-min Rain = 0
KWOS 080125Z 04010KT 00/M01 A3026 RMK A01 T00031005  RH  095%=      5-min Rain = 0
KWOS 080130Z 04009KT 00/M01 A3026 RMK A01 T00031005  RH  095%=      5-min Rain = 0
KWOS 080135Z 04008KT 00/M00 A3026 RMK A01 T00031004  RH  096%=      5-min Rain = 0
KWOS 080140Z 04007KT 00/M00 A3025 RMK A01 T00031003  RH  096%=      5-min Rain = 0
KWOS 080145Z 05007KT 00/M00 A3025 RMK A01 T00041002  RH  097%=      5-min Rain = 0
KWOS 080150Z 05007KT 00/M00 A3025 RMK A01 T00041002  RH  097%=      5-min Rain = 0
KWOS 080155Z 04007KT 00/M00 A3026 RMK A01 T00041002  RH  097%=      5-min Rain = 0
KWOS 080200Z 05008KT 00/M00 A3026 RMK A01 T00031002  RH  097%=      5-min Rain = 0
KWOS 080205Z 05008KT 00/M00 A3027 RMK A01 T00041002  RH  097%=      5-min Rain = 0
KWOS 080210Z 05007KT 00/M00 A3027 RMK A01 T00041002  RH  097%=      5-min Rain = 0
KWOS 080215Z 05007KT 00/M00 A3027 RMK A01 T00041002  RH  097%=      5-min Rain = 0
KWOS 080220Z 05006KT 00/M00 A3027 RMK A01 T00041001  RH  098%=      5-min Rain = 0
KWOS 080225Z 05006KT 00/M00 A3028 RMK A01 T00041001  RH  098%=      5-min Rain = 0
KWOS 080230Z 05005KT 00/00 A3028 RMK A01 T000400-0  RH  098%=      5-min Rain = 0
KWOS 080235Z 05005KT 01/00 A3028 RMK A01 T00050000  RH  098%=      5-min Rain = 0
KWOS 080240Z 03006KT 01/00 A3028 RMK A01 T00050001  RH  098%=      5-min Rain = 0
KWOS 080245Z 03007KT 01/00 A3028 RMK A01 T00050000  RH  098%=      5-min Rain = 0.01
KWOS 080250Z 04008KT 00/00 A3028 RMK A01 T000400-0  RH  098%=      5-min Rain = 0
KWOS 080255Z 05008KT 00/00 A3028 RMK A01 T000400-0  RH  098%=      5-min Rain = 0.01
KWOS 080300Z 05008KT 00/M00 A3028 RMK A01 T00041001  RH  098%=      5-min Rain = 0.01
KWOS 080305Z 05007KT 00/M00 A3028 RMK A01 T00041001  RH  098%=      5-min Rain = 0.01
KWOS 080310Z 05006KT 00/M00 A3028 RMK A01 T00041001  RH  098%=      5-min Rain = 0
KWOS 080315Z 05006KT 00/00 A3028 RMK A01 T000400-0  RH  098%=      5-min Rain = 0
KWOS 080320Z 04006KT 00/00 A3028 RMK A01 T00040000  RH  098%=      5-min Rain = 0.01
KWOS 080325Z 05008KT 00/00 A3028 RMK A01 T000400-0  RH  098%=      5-min Rain = 0
KWOS 080330Z 05007KT 00/M00 A3028 RMK A01 T00041001  RH  098%=      5-min Rain = 0
KWOS 080335Z 05007KT 00/M00 A3027 RMK A01 T00041001  RH  098%=      5-min Rain = 0
KWOS 080340Z 04008KT 00/M00 A3027 RMK A01 T00031001  RH  098%=      5-min Rain = 0
KWOS 080345Z 04007KT 00/M00 A3027 RMK A01 T00041001  RH  098%=      5-min Rain = 0
KWOS 080350Z 05006KT 00/M00 A3027 RMK A01 T00041001  RH  098%=      5-min Rain = 0
KWOS 080355Z 05006KT 00/M00 A3027 RMK A01 T00041001  RH  098%=      5-min Rain = 0
KWOS 080400Z 04006KT 00/M00 A3027 RMK A01 T00041001  RH  098%=      5-min Rain = 0
KWOS 080405Z 04006KT 00/00 A3027 RMK A01 T000400-0  RH  098%=      5-min Rain = 0.01
KWOS 080410Z 03006KT 01/00 A3027 RMK A01 T000500-0  RH  098%=      5-min Rain = 0
KWOS 080415Z 03007KT 01/00 A3027 RMK A01 T000500-0  RH  098%=      5-min Rain = 0
KWOS 080420Z 03007KT 00/M00 A3026 RMK A01 T00041001  RH  098%=      5-min Rain = 0
KWOS 080425Z 03007KT 01/00 A3026 RMK A01 T000500-0  RH  098%=      5-min Rain = 0
KWOS 080430Z 03007KT 01/00 A3027 RMK A01 T00050000  RH  098%=      5-min Rain = 0.01
KWOS 080435Z 02008KT 00/00 A3026 RMK A01 T000400-0  RH  098%=      5-min Rain = 0
KWOS 080440Z 04010KT 00/M00 A3026 RMK A01 T00041001  RH  098%=      5-min Rain = 0
KWOS 080445Z 04009KT 00/M00 A3026 RMK A01 T00031002  RH  098%=      5-min Rain = 0
KWOS 080450Z 04009KT 00/M00 A3025 RMK A01 T00031002  RH  098%=      5-min Rain = 0
KWOS 080455Z 04008KT 00/M00 A3026 RMK A01 T00031002  RH  098%=      5-min Rain = 0.01
KWOS 080500Z 04007KT 00/M00 A3026 RMK A01 T00021002  RH  098%=      5-min Rain = 0
KWOS 080505Z 04005KT 00/M00 A3027 RMK A01 T00021002  RH  098%=      5-min Rain = 0
KWOS 080510Z 04006KT 00/M00 A3027 RMK A01 T00021002  RH  098%=      5-min Rain = 0
KWOS 080515Z 03008KT 00/M00 A3027 RMK A01 T00021002  RH  098%=      5-min Rain = 0
KWOS 080520Z 04010KT 00/M00 A3026 RMK A01 T00011003  RH  098%=      5-min Rain = 0
KWOS 080525Z 04008KT 00/M00 A3026 RMK A01 T00011004  RH  098%=      5-min Rain = 0
KWOS 080530Z 04009KT 00/00 A3026 RMK A01 T000000-4  RH  098%=      5-min Rain = 0
KWOS 080535Z 04007KT 00/00 A3026 RMK A01 T000000-4  RH  098%=      5-min Rain = 0
KWOS 080540Z 04008KT 00/00 A3026 RMK A01 T00-000-4  RH  098%=      5-min Rain = 0
KWOS 080545Z 04009KT 00/00 A3026 RMK A01 T00-000-4  RH  098%=      5-min Rain = 0
KWOS 080550Z 03007KT 00/00 A3026 RMK A01 T00-000-4  RH  098%=      5-min Rain = 0
KWOS 080555Z 03008KT 00/00 A3026 RMK A01 T00-000-4  RH  098%=      5-min Rain = 0.01

Page generated in 0.0092 seconds.